SVG weather

Stavanger Airport Sola
Stavanger, Rogaland, Norway

Public forecast

Using degrees Celsius for public forecast. Weather courtesy of forecast.io.

METAR (pilot weather report)

Retrieved 2019/05/20 02:20 UTC (3 minutes ago):

ENZV 200220Z 00000KT CAVOK 11/10 Q1012

TAF (pilot weather forecast)

Retrieved 2019/05/20 00:00 UTC (2 hours ago):

TAF ENZV 192300Z 2000/2024 05005KT 9999 FEW030TCU SCT080 TEMPO 2010/2018 32010KT